createdAt,value
2018-05-23T00:02:27.251Z,2.97
2018-05-23T00:04:56.899Z,2.90
2018-05-23T00:07:25.389Z,2.85
2018-05-23T00:09:54.109Z,3.17
2018-05-23T00:12:22.492Z,3.33
2018-05-23T00:14:50.849Z,2.90
2018-05-23T00:17:20.475Z,3.10
2018-05-23T00:19:49.585Z,3.27
2018-05-23T00:22:20.443Z,3.40
2018-05-23T00:24:48.951Z,3.30
2018-05-23T00:27:17.981Z,2.80
2018-05-23T00:29:46.328Z,2.83
2018-05-23T00:32:14.717Z,3.03
2018-05-23T00:34:43.389Z,2.97
2018-05-23T00:37:11.733Z,3.43
2018-05-23T00:39:40.103Z,3.20
2018-05-23T00:42:08.567Z,3.10
2018-05-23T00:44:38.001Z,3.13
2018-05-23T00:47:06.387Z,2.70
2018-05-23T00:49:34.730Z,2.97
2018-05-23T00:52:03.840Z,3.27
2018-05-23T00:54:33.052Z,3.37
2018-05-23T00:57:01.611Z,2.80
2018-05-23T00:59:30.842Z,3.10
2018-05-23T01:01:59.396Z,3.20
2018-05-23T01:04:28.582Z,3.30
2018-05-23T01:06:57.647Z,2.97
2018-05-23T01:09:25.977Z,3.28
2018-05-23T01:11:55.072Z,3.23
2018-05-23T01:14:24.157Z,3.23
2018-05-23T01:16:53.296Z,3.20
2018-05-23T01:19:21.702Z,3.43
2018-05-23T01:21:50.729Z,3.17
2018-05-23T01:24:19.838Z,3.00
2018-05-23T01:26:48.260Z,3.07
2018-05-23T01:29:17.546Z,2.80
2018-05-23T01:31:45.915Z,3.07
2018-05-23T01:34:14.960Z,3.07
2018-05-23T01:36:43.350Z,3.20
2018-05-23T01:39:12.769Z,2.90
2018-05-23T01:41:41.147Z,3.28
2018-05-23T01:44:10.320Z,3.10
2018-05-23T01:46:38.713Z,3.30
2018-05-23T01:49:25.733Z,3.27
2018-05-23T01:51:55.237Z,3.00
2018-05-23T01:54:24.329Z,3.00
2018-05-23T01:56:53.449Z,3.20
2018-05-23T01:59:22.439Z,3.10
2018-05-23T02:01:50.988Z,3.40
2018-05-23T02:04:19.657Z,3.20
2018-05-23T02:06:49.082Z,3.20
2018-05-23T02:09:18.230Z,3.10
2018-05-23T02:11:46.669Z,2.90
2018-05-23T02:14:16.648Z,3.03
2018-05-23T02:16:45.750Z,3.20
2018-05-23T02:19:15.239Z,3.20
2018-05-23T02:21:44.622Z,3.23
2018-05-23T02:24:12.981Z,3.00
2018-05-23T02:26:41.359Z,3.17
2018-05-23T02:29:09.715Z,3.40
2018-05-23T02:31:39.622Z,3.10
2018-05-23T02:34:08.699Z,2.80
2018-05-23T02:36:37.083Z,2.70
2018-05-23T02:39:06.340Z,2.92
2018-05-23T02:41:34.705Z,2.67
2018-05-23T02:44:03.021Z,2.90
2018-05-23T02:46:31.428Z,3.00
2018-05-23T02:48:59.767Z,2.67
2018-05-23T02:51:28.119Z,2.80
2018-05-23T02:53:56.518Z,3.10
2018-05-23T02:56:25.535Z,2.87
2018-05-23T02:58:54.219Z,3.30
2018-05-23T03:01:22.587Z,2.73
2018-05-23T03:03:50.941Z,3.20
2018-05-23T03:06:20.110Z,3.20
2018-05-23T03:08:51.966Z,2.80
2018-05-23T03:11:21.981Z,2.90
2018-05-23T03:13:51.182Z,2.67
2018-05-23T03:16:21.297Z,2.97
2018-05-23T03:18:49.956Z,2.90
2018-05-23T03:21:20.074Z,3.00
2018-05-23T03:23:49.443Z,3.10
2018-05-23T03:26:18.577Z,3.13
2018-05-23T03:28:46.945Z,2.80
2018-05-23T03:31:15.351Z,3.53
2018-05-23T03:33:43.710Z,3.17
2018-05-23T03:36:13.142Z,3.07
2018-05-23T03:38:42.243Z,3.00
2018-05-23T03:41:10.631Z,2.90
2018-05-23T03:43:39.775Z,2.97
2018-05-23T03:46:08.138Z,2.50
2018-05-23T03:48:36.996Z,2.90
2018-05-23T03:51:06.193Z,2.97
2018-05-23T03:53:36.257Z,2.87
2018-05-23T03:56:05.621Z,2.63
2018-05-23T03:58:34.832Z,2.67
2018-05-23T04:04:36.998Z,2.80
2018-05-23T04:10:18.843Z,2.60
2018-05-23T04:12:48.559Z,3.00
2018-05-23T04:15:17.758Z,3.10
2018-05-23T04:17:47.188Z,2.83
2018-05-23T04:20:15.611Z,2.77
2018-05-23T04:22:44.762Z,2.90
2018-05-23T04:25:13.951Z,3.10
2018-05-23T04:27:42.954Z,3.43
2018-05-23T04:30:12.127Z,2.90
2018-05-23T04:32:41.839Z,2.83
2018-05-23T04:35:10.214Z,3.17
2018-05-23T04:37:40.185Z,3.27
2018-05-23T04:40:09.160Z,3.00
2018-05-23T04:42:38.535Z,2.90
2018-05-23T04:45:07.124Z,3.10
2018-05-23T04:47:35.710Z,2.97
2018-05-23T04:50:04.089Z,3.20
2018-05-23T04:52:32.481Z,2.90
2018-05-23T04:55:01.513Z,3.27
2018-05-23T04:57:30.705Z,2.93
2018-05-23T05:00:01.473Z,3.20
2018-05-23T05:02:30.398Z,3.27
2018-05-23T05:04:59.674Z,2.87
2018-05-23T05:07:30.417Z,3.30
2018-05-23T05:09:59.485Z,3.00
2018-05-23T05:12:28.585Z,3.27
2018-05-23T05:14:57.907Z,3.53
2018-05-23T05:17:27.606Z,3.10
2018-05-23T05:19:56.628Z,3.33
2018-05-23T05:22:24.961Z,3.40
2018-05-23T05:24:54.971Z,3.17
2018-05-23T05:27:25.144Z,3.33
2018-05-23T05:29:54.840Z,3.47
2018-05-23T05:32:23.192Z,3.53
2018-05-23T05:34:51.873Z,3.37
2018-05-23T05:37:20.508Z,3.27
2018-05-23T05:39:48.882Z,3.10
2018-05-23T05:42:19.089Z,3.50
2018-05-23T05:44:49.037Z,3.40
2018-05-23T05:47:18.747Z,2.97
2018-05-23T05:49:47.125Z,3.30
2018-05-23T05:52:15.545Z,3.17
2018-05-23T05:54:44.720Z,2.93
2018-05-23T05:57:13.833Z,3.70
2018-05-23T05:59:43.085Z,3.30
2018-05-23T06:02:11.521Z,3.17
2018-05-23T06:04:39.905Z,3.00
2018-05-23T06:07:08.339Z,3.17
2018-05-23T06:09:37.518Z,3.47
2018-05-23T06:12:05.924Z,3.00
2018-05-23T06:14:35.140Z,3.30
2018-05-23T06:17:04.277Z,3.27
2018-05-23T06:19:33.354Z,3.17
2018-05-23T06:22:02.787Z,3.70
2018-05-23T06:24:31.249Z,3.40
2018-05-23T06:27:00.451Z,3.20
2018-05-23T06:29:28.947Z,3.10
2018-05-23T06:31:58.320Z,3.60
2018-05-23T06:34:26.680Z,3.47
2018-05-23T06:36:56.437Z,3.43
2018-05-23T06:39:24.792Z,3.40
2018-05-23T06:41:53.156Z,3.30
2018-05-23T06:44:21.499Z,3.43
2018-05-23T06:46:51.554Z,3.60
2018-05-23T06:49:20.704Z,3.63
2018-05-23T06:51:49.390Z,3.50
2018-05-23T06:54:18.516Z,3.17
2018-05-23T06:56:47.672Z,3.50
2018-05-23T06:59:16.143Z,3.40
2018-05-23T07:01:46.670Z,3.10
2018-05-23T07:04:15.412Z,3.63
2018-05-23T07:06:43.794Z,3.77
2018-05-23T07:09:12.181Z,3.85
2018-05-23T07:11:41.506Z,3.50
2018-05-23T07:14:10.539Z,3.53
2018-05-23T07:16:38.970Z,3.03
2018-05-23T07:19:07.530Z,3.33
2018-05-23T07:21:36.728Z,3.40
2018-05-23T07:24:05.947Z,3.60
2018-05-23T07:26:35.811Z,3.47
2018-05-23T07:29:04.270Z,2.97
2018-05-23T07:31:33.544Z,3.40
2018-05-23T07:34:02.883Z,4.05
2018-05-23T07:36:31.969Z,3.40
2018-05-23T07:39:00.326Z,3.67
2018-05-23T07:41:30.277Z,3.58
2018-05-23T07:43:59.916Z,3.23
2018-05-23T07:46:29.045Z,3.17
2018-05-23T07:48:57.757Z,3.00
2018-05-23T07:51:27.456Z,3.08
2018-05-23T07:53:56.146Z,2.90
2018-05-23T07:56:25.597Z,3.08
2018-05-23T07:58:54.731Z,2.80
2018-05-23T08:01:24.086Z,2.92
2018-05-23T08:03:53.440Z,2.67
2018-05-23T08:06:22.930Z,3.03
2018-05-23T08:08:52.120Z,3.30
2018-05-23T08:11:21.335Z,2.80
2018-05-23T08:13:51.055Z,3.00
2018-05-23T08:16:19.411Z,2.58
2018-05-23T08:18:47.781Z,3.08
2018-05-23T08:21:16.141Z,3.33
2018-05-23T08:23:44.499Z,3.37
2018-05-23T08:26:14.616Z,3.00
2018-05-23T08:28:44.898Z,3.20
2018-05-23T08:31:13.268Z,3.10
2018-05-23T08:33:43.413Z,3.20
2018-05-23T08:36:11.773Z,2.85
2018-05-23T08:38:40.959Z,3.10
2018-05-23T08:41:11.213Z,2.70
2018-05-23T08:43:40.130Z,2.60
2018-05-23T08:46:08.591Z,2.87
2018-05-23T08:48:37.724Z,3.37
2018-05-23T08:51:06.148Z,3.03
2018-05-23T08:53:35.242Z,2.75
2018-05-23T08:56:04.381Z,3.03
2018-05-23T08:58:35.140Z,3.87
2018-05-23T09:01:03.551Z,3.03
2018-05-23T09:03:31.970Z,2.85
2018-05-23T09:06:00.460Z,3.30
2018-05-23T09:08:31.418Z,3.00
2018-05-23T09:11:01.354Z,3.03
2018-05-23T09:13:31.033Z,3.00
2018-05-23T09:16:01.879Z,2.67
2018-05-23T09:18:30.325Z,2.70
2018-05-23T09:20:58.728Z,2.80
2018-05-23T09:23:27.862Z,2.95
2018-05-23T09:25:57.128Z,2.80
2018-05-23T09:28:26.999Z,2.80
2018-05-23T09:30:55.331Z,3.20
2018-05-23T09:33:25.226Z,3.05
2018-05-23T09:35:56.187Z,2.90
2018-05-23T09:38:24.554Z,2.80
2018-05-23T09:40:53.732Z,2.70
2018-05-23T09:43:23.932Z,3.03
2018-05-23T09:45:52.652Z,2.90
2018-05-23T09:48:21.829Z,3.05
2018-05-23T09:50:50.333Z,3.00
2018-05-23T09:53:20.573Z,2.92
2018-05-23T09:55:51.028Z,2.62
2018-05-23T09:58:19.509Z,3.12
2018-05-23T10:00:47.986Z,2.85
2018-05-23T10:03:18.753Z,2.97
2018-05-23T10:05:47.238Z,3.40
2018-05-23T10:08:15.628Z,2.65
2018-05-23T10:10:45.488Z,2.53
2018-05-23T10:13:15.011Z,2.92
2018-05-23T10:15:43.438Z,2.70
2018-05-23T10:18:14.373Z,2.80
2018-05-23T10:20:42.872Z,2.90
2018-05-23T10:23:11.449Z,2.85
2018-05-23T10:25:42.578Z,2.65
2018-05-23T10:28:12.501Z,2.50
2018-05-23T10:30:43.810Z,2.80
2018-05-23T10:33:13.696Z,2.60
2018-05-23T10:35:42.204Z,3.42
2018-05-23T10:38:11.527Z,2.60
2018-05-23T10:40:39.963Z,2.78
2018-05-23T10:43:08.317Z,2.90
2018-05-23T10:45:36.744Z,2.55
2018-05-23T10:48:05.142Z,2.80
2018-05-23T10:50:35.298Z,2.80
2018-05-23T10:53:03.822Z,2.87
2018-05-23T10:55:33.316Z,3.15
2018-05-23T10:58:02.770Z,2.53
2018-05-23T11:00:32.904Z,3.28
2018-05-23T11:06:34.510Z,2.65
2018-05-23T11:09:03.096Z,2.70
2018-05-23T11:11:32.255Z,2.58
2018-05-23T11:14:01.387Z,2.70
2018-05-23T11:16:30.602Z,2.45
2018-05-23T11:19:00.371Z,2.47
2018-05-23T11:21:29.597Z,2.78
2018-05-23T11:23:57.996Z,2.47
2018-05-23T11:26:27.985Z,2.22
2018-05-23T11:28:56.422Z,2.33
2018-05-23T11:31:25.609Z,2.80
2018-05-23T11:33:55.125Z,2.50
2018-05-23T11:36:25.663Z,2.62
2018-05-23T11:38:54.809Z,2.40
2018-05-23T11:41:25.300Z,2.35
2018-05-23T11:43:55.449Z,2.47
2018-05-23T11:46:24.645Z,2.40
2018-05-23T11:48:53.514Z,2.55
2018-05-23T11:51:22.561Z,2.22
2018-05-23T11:53:51.626Z,2.58
2018-05-23T11:56:22.436Z,2.58
2018-05-23T11:58:53.116Z,2.40
2018-05-23T12:01:22.901Z,2.50
2018-05-23T12:03:52.223Z,2.50
2018-05-23T12:06:24.034Z,2.47
2018-05-23T12:08:53.300Z,2.58
2018-05-23T12:11:22.576Z,2.65
2018-05-23T12:13:51.012Z,3.12
2018-05-23T12:16:21.120Z,2.47
2018-05-23T12:18:52.168Z,2.42
2018-05-23T12:21:21.726Z,2.42
2018-05-23T12:23:50.206Z,2.37
2018-05-23T12:26:18.701Z,2.60
2018-05-23T12:28:47.856Z,2.70
2018-05-23T12:31:17.397Z,2.60
2018-05-23T12:33:46.702Z,2.40
2018-05-23T12:36:15.271Z,2.28
2018-05-23T12:38:43.863Z,2.42
2018-05-23T12:41:12.820Z,2.57
2018-05-23T12:43:41.903Z,2.80
2018-05-23T12:46:12.992Z,2.42
2018-05-23T12:48:42.088Z,2.70
2018-05-23T12:51:11.870Z,2.80
2018-05-23T12:53:40.284Z,2.75
2018-05-23T12:56:08.760Z,2.53
2018-05-23T12:58:38.053Z,2.53
2018-05-23T13:01:06.496Z,2.70
2018-05-23T13:03:35.674Z,2.50
2018-05-23T13:06:05.581Z,2.58
2018-05-23T13:08:34.060Z,3.08
2018-05-23T13:11:02.450Z,3.00
2018-05-23T13:13:33.569Z,2.80
2018-05-23T13:16:02.305Z,2.92
2018-05-23T13:18:30.704Z,3.03
2018-05-23T13:20:59.173Z,3.03
2018-05-23T13:23:28.223Z,2.72
2018-05-23T13:25:56.722Z,2.70
2018-05-23T13:28:26.532Z,2.47
2018-05-23T13:30:56.605Z,2.65
2018-05-23T13:33:26.503Z,3.05
2018-05-23T13:35:55.291Z,2.80
2018-05-23T13:38:24.625Z,2.60
2018-05-23T13:40:53.817Z,2.65
2018-05-23T13:43:22.433Z,2.45
2018-05-23T13:45:51.570Z,2.45
2018-05-23T13:48:20.276Z,2.58
2018-05-23T13:50:49.103Z,2.55
2018-05-23T13:53:19.346Z,2.50
2018-05-23T13:55:49.084Z,2.30
2018-05-23T13:58:17.669Z,2.60
2018-05-23T14:00:46.114Z,2.87
2018-05-23T14:03:15.267Z,2.50
2018-05-23T14:05:44.912Z,2.60
2018-05-23T14:08:14.035Z,2.30
2018-05-23T14:10:44.135Z,2.33
2018-05-23T14:13:13.324Z,2.33
2018-05-23T14:15:43.491Z,2.42
2018-05-23T14:18:11.859Z,2.37
2018-05-23T14:20:40.301Z,2.40
2018-05-23T14:23:10.815Z,2.50
2018-05-23T14:25:41.011Z,2.45
2018-05-23T14:28:11.307Z,2.33
2018-05-23T14:30:39.646Z,2.83
2018-05-23T14:33:08.870Z,2.58
2018-05-23T14:35:37.294Z,2.40
2018-05-23T14:38:06.444Z,2.40
2018-05-23T14:40:36.449Z,2.40
2018-05-23T14:43:05.712Z,2.42
2018-05-23T14:45:34.572Z,2.37
2018-05-23T14:48:04.564Z,2.50
2018-05-23T14:50:33.944Z,2.62
2018-05-23T14:53:02.481Z,2.70
2018-05-23T14:55:31.757Z,2.47
2018-05-23T14:58:00.270Z,2.30
2018-05-23T15:00:29.057Z,2.20
2018-05-23T15:02:57.405Z,2.50
2018-05-23T15:05:25.777Z,2.50
2018-05-23T15:07:55.009Z,2.30
2018-05-23T15:10:23.391Z,2.65
2018-05-23T15:12:51.835Z,2.70
2018-05-23T15:15:21.186Z,2.58
2018-05-23T15:17:49.952Z,2.40
2018-05-23T15:20:18.308Z,2.20
2018-05-23T15:22:48.542Z,2.10
2018-05-23T15:25:16.955Z,2.22
2018-05-23T15:27:45.306Z,2.67
2018-05-23T15:30:13.812Z,2.53
2018-05-23T15:32:42.304Z,2.35
2018-05-23T15:35:10.693Z,2.50
2018-05-23T15:37:39.972Z,2.35
2018-05-23T15:40:08.401Z,2.42
2018-05-23T15:42:38.446Z,2.78
2018-05-23T15:45:07.914Z,2.78
2018-05-23T15:47:36.271Z,2.30
2018-05-23T15:50:05.164Z,2.30
2018-05-23T15:52:33.543Z,2.30
2018-05-23T15:55:01.898Z,2.00
2018-05-23T15:57:30.338Z,2.20
2018-05-23T15:59:58.700Z,2.22
2018-05-23T16:02:27.859Z,2.50
2018-05-23T16:04:56.371Z,2.33
2018-05-23T16:07:25.661Z,2.55
2018-05-23T16:09:54.056Z,2.25
2018-05-23T16:12:23.500Z,2.05
2018-05-23T16:14:52.840Z,2.17
2018-05-23T16:17:21.328Z,2.00
2018-05-23T16:19:50.613Z,2.20
2018-05-23T16:22:19.065Z,2.40
2018-05-23T16:24:47.438Z,2.10
2018-05-23T16:27:16.742Z,2.03
2018-05-23T16:29:46.103Z,2.00
2018-05-23T16:32:15.243Z,2.00
2018-05-23T16:34:44.198Z,2.08
2018-05-23T16:37:14.895Z,2.53
2018-05-23T16:39:43.293Z,2.03
2018-05-23T16:42:12.443Z,2.03
2018-05-23T16:44:43.127Z,2.35
2018-05-23T16:47:12.071Z,1.90
2018-05-23T16:49:40.471Z,1.90
2018-05-23T16:52:08.915Z,2.30
2018-05-23T16:54:37.208Z,2.05
2018-05-23T16:57:05.635Z,2.30
2018-05-23T16:59:34.796Z,1.95
2018-05-23T17:02:03.178Z,1.95
2018-05-23T17:04:31.611Z,2.25
2018-05-23T17:07:01.090Z,2.30
2018-05-23T17:09:29.639Z,1.80
2018-05-23T17:11:58.024Z,2.00
2018-05-23T17:14:26.397Z,1.80
2018-05-23T17:16:54.927Z,2.00
2018-05-23T17:19:24.215Z,1.87
2018-05-23T17:21:53.467Z,1.75
2018-05-23T17:24:22.325Z,1.80
2018-05-23T17:26:51.464Z,2.00
2018-05-23T17:29:19.854Z,2.23
2018-05-23T17:31:48.277Z,2.08
2018-05-23T17:34:17.686Z,2.00
2018-05-23T17:36:46.168Z,2.00
2018-05-23T17:39:14.574Z,1.85
2018-05-23T17:41:42.989Z,2.03
2018-05-23T17:44:12.000Z,1.97
2018-05-23T17:46:41.135Z,1.83
2018-05-23T17:49:09.510Z,2.10
2018-05-23T17:51:37.904Z,2.08
2018-05-23T17:54:06.350Z,1.90
2018-05-23T17:56:35.529Z,2.28
2018-05-23T17:59:05.574Z,2.17
2018-05-23T18:01:33.946Z,1.80
2018-05-23T18:04:03.137Z,2.03
2018-05-23T18:06:32.452Z,1.75
2018-05-23T18:09:01.801Z,1.80
2018-05-23T18:11:30.211Z,1.95
2018-05-23T18:13:59.401Z,1.92
2018-05-23T18:16:28.615Z,2.10
2018-05-23T18:18:57.753Z,1.73
2018-05-23T18:21:26.312Z,1.90
2018-05-23T18:23:55.722Z,1.70
2018-05-23T18:26:24.116Z,1.80
2018-05-23T18:28:52.493Z,1.90
2018-05-23T18:31:20.872Z,1.60
2018-05-23T18:33:49.261Z,2.08
2018-05-23T18:36:17.752Z,1.83
2018-05-23T18:38:47.337Z,1.83
2018-05-23T18:41:17.259Z,2.10
2018-05-23T18:43:47.263Z,2.20
2018-05-23T18:46:16.543Z,2.25
2018-05-23T18:48:45.015Z,13.15
2018-05-23T18:51:14.233Z,32.75
2018-05-23T18:53:42.728Z,10.20
2018-05-23T18:56:11.777Z,19.23
2018-05-23T18:58:40.913Z,51.88
2018-05-23T19:01:09.501Z,72.35
2018-05-23T19:03:38.811Z,25.00
2018-05-23T19:06:09.919Z,7.30
2018-05-23T19:08:39.250Z,5.87
2018-05-23T19:11:09.310Z,4.95
2018-05-23T19:13:37.744Z,5.20
2018-05-23T19:16:06.106Z,3.12
2018-05-23T19:18:35.439Z,2.45
2018-05-23T19:21:03.843Z,2.25
2018-05-23T19:23:32.764Z,2.58
2018-05-23T19:26:01.248Z,1.77
2018-05-23T19:28:30.448Z,2.00
2018-05-23T19:30:58.887Z,1.80
2018-05-23T19:33:28.363Z,1.70
2018-05-23T19:35:56.868Z,1.80
2018-05-23T19:38:25.371Z,2.33
2018-05-23T19:40:54.877Z,1.70
2018-05-23T19:43:26.105Z,1.90
2018-05-23T19:45:54.539Z,1.70
2018-05-23T19:48:22.920Z,1.53
2018-05-23T19:50:51.323Z,1.80
2018-05-23T19:53:20.558Z,1.70
2018-05-23T19:55:48.951Z,1.83
2018-05-23T19:58:18.062Z,1.67
2018-05-23T20:00:47.510Z,1.70
2018-05-23T20:03:17.737Z,1.77
2018-05-23T20:05:46.383Z,1.50
2018-05-23T20:08:15.068Z,1.47
2018-05-23T20:10:44.119Z,1.70
2018-05-23T20:13:12.634Z,1.65
2018-05-23T20:15:41.207Z,1.53
2018-05-23T20:18:10.571Z,1.70
2018-05-23T20:20:39.057Z,1.62
2018-05-23T20:23:08.277Z,1.80
2018-05-23T20:25:38.495Z,1.65
2018-05-23T20:28:07.723Z,1.50
2018-05-23T20:30:36.356Z,1.60
2018-05-23T20:33:05.603Z,1.60
2018-05-23T20:35:35.025Z,1.50
2018-05-23T20:38:03.723Z,1.70
2018-05-23T20:40:32.631Z,1.40
2018-05-23T20:43:01.192Z,1.58
2018-05-23T20:45:29.630Z,1.67
2018-05-23T20:47:58.814Z,1.70
2018-05-23T20:50:27.187Z,1.67
2018-05-23T20:52:56.337Z,1.70
2018-05-23T20:55:25.511Z,1.50
2018-05-23T20:57:54.640Z,1.80
2018-05-23T21:00:23.867Z,1.60
2018-05-23T21:02:52.860Z,1.60
2018-05-23T21:05:22.522Z,1.70
2018-05-23T21:07:51.088Z,1.45
2018-05-23T21:10:20.257Z,1.50
2018-05-23T21:12:48.626Z,1.40
2018-05-23T21:15:17.254Z,1.60
2018-05-23T21:17:46.406Z,1.65
2018-05-23T21:20:14.773Z,1.77
2018-05-23T21:22:43.187Z,1.60
2018-05-23T21:25:11.548Z,1.55
2018-05-23T21:27:39.931Z,1.80
2018-05-23T21:33:40.891Z,1.70
2018-05-23T21:36:09.275Z,1.90
2018-05-23T21:38:37.629Z,1.50
2018-05-23T21:41:06.886Z,1.70
2018-05-23T21:43:36.033Z,1.67
2018-05-23T21:46:04.490Z,1.40
2018-05-23T21:48:33.049Z,1.50
2018-05-23T21:51:01.393Z,1.40
2018-05-23T21:53:29.799Z,1.40
2018-05-23T21:55:58.899Z,1.45
2018-05-23T21:58:27.291Z,1.70
2018-05-23T22:00:55.732Z,1.48
2018-05-23T22:03:24.339Z,1.40
2018-05-23T22:05:53.010Z,1.50
2018-05-23T22:08:22.212Z,1.30
2018-05-23T22:10:51.662Z,1.70
2018-05-23T22:13:20.067Z,1.45
2018-05-23T22:15:49.384Z,1.45
2018-05-23T22:18:17.878Z,1.62
2018-05-23T22:20:46.236Z,1.40
2018-05-23T22:23:14.687Z,1.43
2018-05-23T22:25:43.065Z,1.50
2018-05-23T22:28:11.828Z,1.42
2018-05-23T22:30:40.276Z,1.55
2018-05-23T22:33:09.394Z,1.50
2018-05-23T22:35:38.632Z,1.50
2018-05-23T22:38:07.734Z,1.58
2018-05-23T22:40:36.107Z,1.30
2018-05-23T22:43:04.484Z,1.70
2018-05-23T22:45:32.957Z,1.83
2018-05-23T22:48:01.438Z,1.60
2018-05-23T22:50:29.803Z,1.80
2018-05-23T22:52:59.118Z,1.70
2018-05-23T22:55:28.116Z,1.52
2018-05-23T22:57:56.805Z,1.70
2018-05-23T23:00:25.930Z,1.70
2018-05-23T23:02:54.285Z,1.60
2018-05-23T23:05:22.679Z,1.60
2018-05-23T23:07:51.445Z,1.77
2018-05-23T23:10:20.613Z,1.40
2018-05-23T23:12:49.142Z,1.20
2018-05-23T23:15:17.512Z,1.50
2018-05-23T23:17:45.931Z,1.75
2018-05-23T23:20:14.407Z,1.43
2018-05-23T23:22:43.564Z,1.73
2018-05-23T23:25:12.005Z,1.65
2018-05-23T23:27:41.182Z,1.50
2018-05-23T23:30:09.543Z,1.70
2018-05-23T23:32:37.943Z,1.60
2018-05-23T23:35:07.822Z,1.48
2018-05-23T23:37:37.009Z,1.60
2018-05-23T23:40:05.383Z,1.67
2018-05-23T23:42:33.785Z,1.50
2018-05-23T23:45:02.173Z,1.50
2018-05-23T23:47:30.542Z,1.45
2018-05-23T23:49:59.517Z,1.83
2018-05-23T23:52:28.231Z,1.52
2018-05-23T23:54:56.630Z,1.73
2018-05-23T23:57:27.672Z,1.55
2018-05-23T23:59:56.827Z,1.58
